createdAt,value
2019-04-20T00:00:54.557Z,12.05
2019-04-20T00:03:29.807Z,12.98
2019-04-20T00:06:04.529Z,12.40
2019-04-20T00:08:44.258Z,12.53
2019-04-20T00:11:22.079Z,12.10
2019-04-20T00:16:25.185Z,11.85
2019-04-20T00:18:59.993Z,12.18
2019-04-20T00:21:43.113Z,13.28
2019-04-20T00:24:24.822Z,14.60
2019-04-20T00:27:15.853Z,11.63
2019-04-20T00:29:40.938Z,12.68
2019-04-20T00:32:06.600Z,13.80
2019-04-20T00:34:32.007Z,13.03
2019-04-20T00:37:08.804Z,14.00
2019-04-20T00:39:41.150Z,13.22
2019-04-20T00:42:54.878Z,11.95
2019-04-20T00:45:49.464Z,11.85
2019-04-20T00:48:22.689Z,11.70
2019-04-20T00:51:01.164Z,14.28
2019-04-20T00:53:30.407Z,14.03
2019-04-20T00:56:01.606Z,14.43
2019-04-20T00:58:48.003Z,14.18
2019-04-20T01:01:31.087Z,15.18
2019-04-20T01:04:09.103Z,15.03
2019-04-20T01:06:36.890Z,16.10
2019-04-20T01:09:03.302Z,32.13
2019-04-20T01:11:40.420Z,33.50
2019-04-20T01:14:12.482Z,29.90
2019-04-20T01:16:49.135Z,32.50
2019-04-20T01:19:19.298Z,43.38
2019-04-20T01:21:59.200Z,38.98
2019-04-20T01:24:30.887Z,59.73
2019-04-20T01:26:58.068Z,74.03
2019-04-20T01:29:46.966Z,64.27
2019-04-20T01:32:23.304Z,66.05
2019-04-20T01:35:02.338Z,231.40
2019-04-20T01:37:36.271Z,248.43
2019-04-20T01:39:59.242Z,282.92
2019-04-20T01:42:40.346Z,196.82
2019-04-20T01:45:22.419Z,244.05
2019-04-20T01:47:54.118Z,238.32
2019-04-20T01:50:27.782Z,202.65
2019-04-20T01:53:10.266Z,159.07
2019-04-20T01:56:40.318Z,106.80
2019-04-20T01:59:16.010Z,172.68
2019-04-20T02:01:37.638Z,162.43
2019-04-20T02:04:32.289Z,158.22
2019-04-20T02:07:12.026Z,130.90
2019-04-20T02:09:59.823Z,93.55
2019-04-20T02:12:30.457Z,24.23
2019-04-20T02:15:04.755Z,62.17
2019-04-20T02:17:40.826Z,55.75
2019-04-20T02:20:27.723Z,61.50
2019-04-20T02:23:07.711Z,42.65
2019-04-20T02:25:26.991Z,37.42
2019-04-20T02:28:20.326Z,42.65
2019-04-20T02:31:28.559Z,35.88
2019-04-20T02:39:33.001Z,13.08
2019-04-20T02:41:58.254Z,14.53
2019-04-20T02:44:33.934Z,18.32
2019-04-20T02:52:22.689Z,15.23
2019-04-20T02:57:39.923Z,15.53
2019-04-20T03:00:25.140Z,14.40
2019-04-20T03:02:28.561Z,12.88
2019-04-20T03:04:59.935Z,11.45
2019-04-20T03:07:32.931Z,9.13
2019-04-20T03:12:50.342Z,9.35
2019-04-20T03:15:22.484Z,8.73
2019-04-20T03:17:58.882Z,9.15
2019-04-20T03:20:36.372Z,8.50
2019-04-20T03:23:33.546Z,9.05
2019-04-20T03:25:58.385Z,9.50
2019-04-20T03:28:52.730Z,9.58
2019-04-20T03:34:51.506Z,9.68
2019-04-20T03:36:50.009Z,9.73
2019-04-20T03:39:17.684Z,11.05
2019-04-20T03:41:43.486Z,9.60
2019-04-20T03:44:19.184Z,10.05
2019-04-20T03:46:57.041Z,14.47
2019-04-20T03:49:48.353Z,40.70
2019-04-20T03:55:18.778Z,17.80
2019-04-20T03:57:54.307Z,18.52
2019-04-20T04:00:45.779Z,17.17
2019-04-20T04:03:57.067Z,20.90
2019-04-20T04:06:15.657Z,33.30
2019-04-20T04:08:42.728Z,44.63
2019-04-20T04:11:26.281Z,40.85
2019-04-20T04:13:45.906Z,64.30
2019-04-20T04:16:21.899Z,41.90
2019-04-20T04:19:07.532Z,45.92
2019-04-20T04:21:49.736Z,48.52
2019-04-20T04:24:22.612Z,34.98
2019-04-20T04:29:47.013Z,34.13
2019-04-20T04:32:49.621Z,36.23
2019-04-20T04:35:01.673Z,38.58
2019-04-20T04:37:38.579Z,38.90
2019-04-20T04:40:25.344Z,40.63
2019-04-20T04:42:56.435Z,41.48
2019-04-20T04:45:08.069Z,46.00
2019-04-20T04:47:34.916Z,44.15
2019-04-20T04:50:18.438Z,40.50
2019-04-20T04:52:57.338Z,36.38
2019-04-20T04:57:51.590Z,38.45
2019-04-20T05:03:06.950Z,30.48
2019-04-20T05:05:54.267Z,29.05
2019-04-20T05:08:19.975Z,24.10
2019-04-20T05:10:41.712Z,22.87
2019-04-20T05:13:26.779Z,22.80
2019-04-20T05:16:15.818Z,18.82
2019-04-20T05:19:05.047Z,24.12
2019-04-20T05:21:39.869Z,23.32
2019-04-20T05:24:42.692Z,22.27
2019-04-20T05:27:30.070Z,24.12
2019-04-20T05:32:18.027Z,15.15
2019-04-20T05:35:24.084Z,11.48
2019-04-20T05:38:13.208Z,11.45
2019-04-20T05:40:50.516Z,12.95
2019-04-20T05:43:38.312Z,13.80
2019-04-20T05:46:15.851Z,13.70
2019-04-20T05:48:50.509Z,11.75
2019-04-20T05:51:32.173Z,10.85
2019-04-20T05:54:02.770Z,11.53
2019-04-20T05:56:39.952Z,15.32
2019-04-20T05:59:12.720Z,21.52
2019-04-20T06:01:52.802Z,26.37
2019-04-20T06:04:42.651Z,26.00
2019-04-20T06:06:59.750Z,25.60
2019-04-20T06:09:34.295Z,20.05
2019-04-20T06:14:52.030Z,12.65
2019-04-20T06:17:37.351Z,10.53
2019-04-20T06:20:11.534Z,10.98
2019-04-20T06:22:58.116Z,10.45
2019-04-20T06:25:45.663Z,10.82
2019-04-20T06:28:02.324Z,10.65
2019-04-20T06:30:43.311Z,10.68
2019-04-20T06:36:33.856Z,10.90
2019-04-20T06:39:08.412Z,10.40
2019-04-20T06:42:08.111Z,9.93
2019-04-20T06:44:35.713Z,11.93
2019-04-20T06:49:51.354Z,10.45
2019-04-20T06:52:25.905Z,10.38
2019-04-20T06:54:54.078Z,10.45
2019-04-20T06:57:31.040Z,8.90
2019-04-20T07:00:14.142Z,9.30
2019-04-20T07:02:41.233Z,9.50
2019-04-20T07:05:22.526Z,8.83
2019-04-20T07:08:16.873Z,8.68
2019-04-20T07:10:38.082Z,8.28
2019-04-20T07:12:59.799Z,8.13
2019-04-20T07:15:34.110Z,8.08
2019-04-20T07:18:09.508Z,9.08
2019-04-20T07:21:07.157Z,9.08
2019-04-20T07:23:42.692Z,8.60
2019-04-20T07:26:16.963Z,8.93
2019-04-20T07:28:52.782Z,8.63
2019-04-20T07:31:24.772Z,9.20
2019-04-20T07:36:40.458Z,8.85
2019-04-20T07:39:13.266Z,8.78
2019-04-20T07:41:47.871Z,8.58
2019-04-20T07:49:22.532Z,10.05
2019-04-20T07:51:35.738Z,9.53
2019-04-20T07:54:33.317Z,9.55
2019-04-20T07:56:54.491Z,9.33
2019-04-20T08:02:23.503Z,8.93
2019-04-20T08:04:47.072Z,9.20
2019-04-20T08:07:07.425Z,9.03
2019-04-20T08:09:44.267Z,8.58
2019-04-20T08:12:51.589Z,9.85
2019-04-20T08:15:25.868Z,8.63
2019-04-20T08:17:51.001Z,8.63
2019-04-20T08:22:56.913Z,9.03
2019-04-20T08:25:14.115Z,8.68
2019-04-20T08:27:52.835Z,8.63
2019-04-20T08:30:41.315Z,8.68
2019-04-20T08:33:18.017Z,9.38
2019-04-20T08:36:01.254Z,18.12
2019-04-20T08:40:54.950Z,9.03
2019-04-20T08:43:43.644Z,8.95
2019-04-20T08:46:03.168Z,8.95
2019-04-20T08:48:38.590Z,8.63
2019-04-20T08:51:07.038Z,8.85
2019-04-20T08:53:44.756Z,8.50
2019-04-20T08:56:22.042Z,8.55
2019-04-20T08:58:43.464Z,8.23
2019-04-20T09:01:20.030Z,7.60
2019-04-20T09:03:57.929Z,7.78
2019-04-20T09:06:32.323Z,7.67
2019-04-20T09:09:07.845Z,8.25
2019-04-20T09:11:45.235Z,8.35
2019-04-20T09:14:00.060Z,9.08
2019-04-20T09:16:35.709Z,7.35
2019-04-20T09:19:07.018Z,6.47
2019-04-20T09:21:39.114Z,7.10
2019-04-20T09:24:32.982Z,6.40
2019-04-20T09:26:51.498Z,6.33
2019-04-20T09:29:23.316Z,6.50
2019-04-20T09:32:04.518Z,6.80
2019-04-20T09:34:42.659Z,6.62
2019-04-20T09:37:16.791Z,6.10
2019-04-20T09:39:32.641Z,6.70
2019-04-20T09:42:01.520Z,5.80
2019-04-20T09:44:38.433Z,5.03
2019-04-20T09:47:05.074Z,5.35
2019-04-20T09:49:46.266Z,4.92
2019-04-20T09:52:21.266Z,5.10
2019-04-20T09:54:54.865Z,5.00
2019-04-20T09:57:30.568Z,5.28
2019-04-20T09:59:58.669Z,4.53
2019-04-20T10:02:23.213Z,4.78
2019-04-20T10:04:47.338Z,4.92
2019-04-20T10:07:21.664Z,4.72
2019-04-20T10:09:50.349Z,4.40
2019-04-20T10:12:21.880Z,4.40
2019-04-20T10:14:53.235Z,4.35
2019-04-20T10:19:54.014Z,4.33
2019-04-20T10:22:24.557Z,4.58
2019-04-20T10:24:55.593Z,3.77
2019-04-20T10:27:26.819Z,3.60
2019-04-20T10:29:58.449Z,3.47
2019-04-20T10:32:36.298Z,4.42
2019-04-20T10:35:00.594Z,4.30
2019-04-20T10:37:33.652Z,3.80
2019-04-20T10:40:04.857Z,4.17
2019-04-20T10:45:05.865Z,3.17
2019-04-20T10:47:37.135Z,3.55
2019-04-20T10:52:38.131Z,3.17
2019-04-20T10:55:08.562Z,3.45
2019-04-20T10:57:39.676Z,4.60
2019-04-20T11:00:10.623Z,3.55
2019-04-20T11:02:44.193Z,3.02
2019-04-20T11:05:12.837Z,3.15
2019-04-20T11:07:44.325Z,3.60
2019-04-20T11:10:21.627Z,2.90
2019-04-20T11:12:48.410Z,2.72
2019-04-20T11:17:49.103Z,3.40
2019-04-20T11:20:19.394Z,3.00
2019-04-20T11:22:50.541Z,3.85
2019-04-20T11:25:22.078Z,3.42
2019-04-20T11:27:52.337Z,4.55
2019-04-20T11:30:22.823Z,3.50
2019-04-20T11:32:53.964Z,3.20
2019-04-20T11:37:55.437Z,3.75
2019-04-20T11:40:26.704Z,3.60
2019-04-20T11:42:57.528Z,3.22
2019-04-20T11:45:28.798Z,3.25
2019-04-20T11:47:59.192Z,3.47
2019-04-20T11:50:29.723Z,3.17
2019-04-20T11:53:01.438Z,3.85
2019-04-20T11:55:32.024Z,4.17
2019-04-20T11:58:02.085Z,4.35
2019-04-20T12:00:53.882Z,3.87
2019-04-20T12:03:24.800Z,3.72
2019-04-20T12:05:53.684Z,4.25
2019-04-20T12:08:25.045Z,3.40
2019-04-20T12:11:01.606Z,4.28
2019-04-20T12:13:31.033Z,3.65
2019-04-20T12:16:01.628Z,3.83
2019-04-20T12:18:33.699Z,4.05
2019-04-20T12:21:05.026Z,3.45
2019-04-20T12:23:36.227Z,6.08
2019-04-20T12:28:38.126Z,3.30
2019-04-20T12:31:13.714Z,3.40
2019-04-20T12:33:44.343Z,3.77
2019-04-20T12:36:16.367Z,4.70
2019-04-20T12:38:53.220Z,4.03
2019-04-20T12:41:35.664Z,3.40
2019-04-20T12:43:57.391Z,3.72
2019-04-20T12:46:28.201Z,4.15
2019-04-20T12:48:59.701Z,5.15
2019-04-20T12:51:33.844Z,3.90
2019-04-20T12:54:04.581Z,4.03
2019-04-20T12:56:35.107Z,6.50
2019-04-20T12:59:05.842Z,4.20
2019-04-20T13:01:37.312Z,3.77
2019-04-20T13:04:09.322Z,3.65
2019-04-20T13:06:40.880Z,4.42
2019-04-20T13:09:12.748Z,3.45
2019-04-20T13:11:55.521Z,3.77
2019-04-20T13:14:52.704Z,3.62
2019-04-20T13:17:24.053Z,4.12
2019-04-20T13:22:37.451Z,5.15
2019-04-20T13:25:10.812Z,4.37
2019-04-20T13:27:47.041Z,3.77
2019-04-20T13:30:19.900Z,4.30
2019-04-20T13:32:51.984Z,5.28
2019-04-20T13:35:28.098Z,3.90
2019-04-20T13:38:11.963Z,3.52
2019-04-20T13:40:43.945Z,3.77
2019-04-20T13:43:17.212Z,3.83
2019-04-20T13:45:48.973Z,3.98
2019-04-20T13:48:21.752Z,3.83
2019-04-20T13:50:56.043Z,4.42
2019-04-20T13:53:28.008Z,4.25
2019-04-20T13:56:01.409Z,4.20
2019-04-20T13:58:49.903Z,3.60
2019-04-20T14:01:22.959Z,3.95
2019-04-20T14:04:12.878Z,4.37
2019-04-20T14:06:45.666Z,4.42
2019-04-20T14:09:19.348Z,4.10
2019-04-20T14:11:51.749Z,3.80
2019-04-20T14:14:25.466Z,3.80
2019-04-20T14:16:57.243Z,4.00
2019-04-20T14:19:27.362Z,3.85
2019-04-20T14:21:59.849Z,4.40
2019-04-20T14:24:30.844Z,4.87
2019-04-20T14:27:03.352Z,4.28
2019-04-20T14:29:34.822Z,3.65
2019-04-20T14:32:07.189Z,3.72
2019-04-20T14:34:42.863Z,4.97
2019-04-20T14:37:15.064Z,4.20
2019-04-20T14:39:46.175Z,3.77
2019-04-20T14:42:27.914Z,4.30
2019-04-20T14:44:52.078Z,4.58
2019-04-20T14:50:03.402Z,3.67
2019-04-20T14:52:35.456Z,6.50
2019-04-20T14:55:08.557Z,6.72
2019-04-20T14:57:41.490Z,6.15
2019-04-20T15:00:29.934Z,6.15
2019-04-20T15:03:05.799Z,5.85
2019-04-20T15:05:37.099Z,7.78
2019-04-20T15:08:08.944Z,7.65
2019-04-20T15:13:11.284Z,7.62
2019-04-20T15:15:41.497Z,6.30
2019-04-20T15:18:15.554Z,5.90
2019-04-20T15:20:47.782Z,6.50
2019-04-20T15:23:23.644Z,5.72
2019-04-20T15:25:54.808Z,6.15
2019-04-20T15:28:30.365Z,5.72
2019-04-20T15:31:02.370Z,6.75
2019-04-20T15:33:34.776Z,7.78
2019-04-20T15:36:06.768Z,5.80
2019-04-20T15:41:16.729Z,6.58
2019-04-20T15:43:46.685Z,7.80
2019-04-20T15:46:17.256Z,11.45
2019-04-20T15:48:48.115Z,7.10
2019-04-20T15:51:19.416Z,6.10
2019-04-20T15:53:53.534Z,6.12
2019-04-20T15:56:24.867Z,6.45
2019-04-20T15:58:56.606Z,5.72
2019-04-20T16:01:28.602Z,5.70
2019-04-20T16:04:01.504Z,5.40
2019-04-20T16:06:32.876Z,8.18
2019-04-20T16:09:06.043Z,5.90
2019-04-20T16:11:39.119Z,7.47
2019-04-20T16:14:09.612Z,6.50
2019-04-20T16:16:40.357Z,6.58
2019-04-20T16:19:25.666Z,6.05
2019-04-20T16:21:43.822Z,6.85
2019-04-20T16:24:16.993Z,8.03
2019-04-20T16:26:53.720Z,7.22
2019-04-20T16:29:25.872Z,7.30
2019-04-20T16:34:36.678Z,7.60
2019-04-20T16:37:10.566Z,6.20
2019-04-20T16:39:42.770Z,6.97
2019-04-20T16:44:51.787Z,7.05
2019-04-20T16:47:24.089Z,6.95
2019-04-20T16:49:57.110Z,6.72
2019-04-20T16:52:34.723Z,5.97
2019-04-20T16:55:08.239Z,5.62
2019-04-20T16:57:44.643Z,7.47
2019-04-20T17:00:19.834Z,13.43
2019-04-20T17:02:54.321Z,8.78
2019-04-20T17:05:25.844Z,5.80
2019-04-20T17:07:57.922Z,5.78
2019-04-20T17:10:28.862Z,5.75
2019-04-20T17:13:01.804Z,6.22
2019-04-20T17:15:43.447Z,5.72
2019-04-20T17:18:23.454Z,6.50
2019-04-20T17:20:50.600Z,5.97
2019-04-20T17:23:43.936Z,7.03
2019-04-20T17:26:18.846Z,5.37
2019-04-20T17:29:10.716Z,6.85
2019-04-20T17:35:01.817Z,6.42
2019-04-20T17:37:24.708Z,7.53
2019-04-20T17:40:19.186Z,8.50
2019-04-20T17:42:41.652Z,7.10
2019-04-20T17:45:08.630Z,6.58
2019-04-20T17:47:50.282Z,16.30
2019-04-20T17:50:25.550Z,7.62
2019-04-20T17:52:59.369Z,7.45
2019-04-20T17:55:41.002Z,11.70
2019-04-20T17:58:12.072Z,10.25
2019-04-20T18:00:52.919Z,9.48
2019-04-20T18:03:58.138Z,9.23
2019-04-20T18:06:21.569Z,7.30
2019-04-20T18:08:49.552Z,8.00
2019-04-20T18:11:14.443Z,7.12
2019-04-20T18:13:39.726Z,7.10
2019-04-20T18:16:39.439Z,22.50
2019-04-20T18:19:02.026Z,13.35
2019-04-20T18:21:28.743Z,13.00
2019-04-20T18:24:06.190Z,8.80
2019-04-20T18:26:51.934Z,7.17
2019-04-20T18:29:26.800Z,8.38
2019-04-20T18:31:44.290Z,6.58
2019-04-20T18:34:25.204Z,7.33
2019-04-20T18:36:54.606Z,7.30
2019-04-20T18:39:37.466Z,8.20
2019-04-20T18:44:46.203Z,6.72
2019-04-20T18:47:23.654Z,6.55
2019-04-20T18:49:47.559Z,5.87
2019-04-20T18:52:09.423Z,6.87
2019-04-20T18:54:48.433Z,6.78
2019-04-20T18:57:23.258Z,6.45
2019-04-20T18:59:54.639Z,7.08
2019-04-20T19:02:31.183Z,6.70
2019-04-20T19:05:01.546Z,6.37
2019-04-20T19:07:41.439Z,8.60
2019-04-20T19:10:19.555Z,7.15
2019-04-20T19:13:01.542Z,7.10
2019-04-20T19:15:56.638Z,6.62
2019-04-20T19:18:27.616Z,7.17
2019-04-20T19:20:50.642Z,8.70
2019-04-20T19:23:21.098Z,13.18
2019-04-20T19:25:54.513Z,12.30
2019-04-20T19:28:36.806Z,13.55
2019-04-20T19:31:17.715Z,15.83
2019-04-20T19:36:38.313Z,16.95
2019-04-20T19:39:23.573Z,23.42
2019-04-20T19:41:51.672Z,25.35
2019-04-20T19:44:25.041Z,22.85
2019-04-20T19:47:11.375Z,19.00
2019-04-20T19:52:25.286Z,19.48
2019-04-20T19:54:46.627Z,20.60
2019-04-20T19:57:22.089Z,21.82
2019-04-20T19:59:40.489Z,29.63
2019-04-20T20:04:47.096Z,42.03
2019-04-20T20:07:21.969Z,36.80
2019-04-20T20:09:54.835Z,32.50
2019-04-20T20:12:27.401Z,31.85
2019-04-20T20:14:59.536Z,30.48
2019-04-20T20:20:26.094Z,23.75
2019-04-20T20:22:43.505Z,26.45
2019-04-20T20:25:12.790Z,22.73
2019-04-20T20:27:50.337Z,25.20
2019-04-20T20:30:27.994Z,26.70
2019-04-20T20:33:15.009Z,27.40
2019-04-20T20:35:36.753Z,29.27
2019-04-20T20:38:16.660Z,28.10
2019-04-20T20:40:56.587Z,26.70
2019-04-20T20:43:23.096Z,22.58
2019-04-20T20:46:01.130Z,25.72
2019-04-20T20:48:38.854Z,25.55
2019-04-20T20:51:39.318Z,22.93
2019-04-20T20:53:58.593Z,20.10
2019-04-20T20:56:28.959Z,19.85
2019-04-20T20:59:08.993Z,19.70
2019-04-20T21:01:42.500Z,18.60
2019-04-20T21:04:05.066Z,18.82
2019-04-20T21:09:08.493Z,27.50
2019-04-20T21:11:42.187Z,27.27
2019-04-20T21:14:21.050Z,25.27
2019-04-20T21:17:00.715Z,26.12
2019-04-20T21:19:41.760Z,23.98
2019-04-20T21:22:04.903Z,19.10
2019-04-20T21:24:31.687Z,20.95
2019-04-20T21:27:08.796Z,21.62
2019-04-20T21:29:43.538Z,22.15
2019-04-20T21:32:14.261Z,23.27
2019-04-20T21:34:49.176Z,24.75
2019-04-20T21:37:20.105Z,20.40
2019-04-20T21:39:56.117Z,19.85
2019-04-20T21:42:26.709Z,17.85
2019-04-20T21:45:05.864Z,18.75
2019-04-20T21:47:33.798Z,17.55
2019-04-20T21:50:20.333Z,19.27
2019-04-20T21:52:43.050Z,22.67
2019-04-20T21:55:09.966Z,24.92
2019-04-20T21:57:48.568Z,22.07
2019-04-20T22:00:24.998Z,18.75
2019-04-20T22:03:00.265Z,13.05
2019-04-20T22:05:32.553Z,13.08
2019-04-20T22:08:07.844Z,12.30
2019-04-20T22:10:36.694Z,11.83
2019-04-20T22:13:11.869Z,12.53
2019-04-20T22:15:55.987Z,13.43
2019-04-20T22:18:48.366Z,13.43
2019-04-20T22:21:21.723Z,12.23
2019-04-20T22:23:59.766Z,12.75
2019-04-20T22:26:27.737Z,19.73
2019-04-20T22:28:52.176Z,19.50
2019-04-20T22:31:24.295Z,21.00
2019-04-20T22:33:56.443Z,19.65
2019-04-20T22:36:35.535Z,23.18
2019-04-20T22:39:15.890Z,21.07
2019-04-20T22:41:53.663Z,22.52
2019-04-20T22:44:26.699Z,34.38
2019-04-20T22:46:58.581Z,75.32
2019-04-20T22:49:50.164Z,65.05
2019-04-20T22:52:26.220Z,65.10
2019-04-20T22:54:54.369Z,42.70
2019-04-20T22:57:31.901Z,40.63
2019-04-20T22:59:56.895Z,50.95
2019-04-20T23:02:23.079Z,47.98
2019-04-20T23:04:54.940Z,46.50
2019-04-20T23:07:28.494Z,54.70
2019-04-20T23:10:03.091Z,48.30
2019-04-20T23:12:35.649Z,51.35
2019-04-20T23:15:10.146Z,50.48
2019-04-20T23:17:50.123Z,43.95
2019-04-20T23:20:26.709Z,47.10
2019-04-20T23:23:01.246Z,25.92
2019-04-20T23:25:33.431Z,20.72
2019-04-20T23:28:10.116Z,29.80
2019-04-20T23:30:42.343Z,24.30
2019-04-20T23:33:14.032Z,22.90
2019-04-20T23:35:54.211Z,17.25
2019-04-20T23:38:26.462Z,27.15
2019-04-20T23:41:01.783Z,24.25
2019-04-20T23:43:43.039Z,25.00
2019-04-20T23:46:24.709Z,23.40
2019-04-20T23:49:18.749Z,22.55
2019-04-20T23:52:08.570Z,20.02
2019-04-20T23:54:22.018Z,23.87
2019-04-20T23:56:50.326Z,23.25
2019-04-20T23:59:28.964Z,22.50
